Ashcamp, KY

7:40 AM EDT on September 30, 2014 (GMT -0400)
Ramey Flats | Change Station
CLOSE
Current Station
Personal Weather Station
Location: Clintwood, VA
Elevation: 1795 ft
Nearby Weather Stations
Active Advisory: Dense Fog Advisory

Elev 1795 ft 37.21 °N, 82.44 °W | Updated 5 minutes ago

Mostly Cloudy
Mostly Cloudy
54.5 °F
Feels Like 54.5 °F
N
0.0
Wind Variable Wind from SSE
Gusts 0.0 mph

Today
High -- | Low -- °F
--% Chance of Precip.
Yesterday
High -- | Low -- °F
Precip. -- in
7:24 AM 7:14 PM
Waxing Crescent, 36% visible
Pressure 30.03 in
Visibility 0.2 miles
Clouds
Dew Point 55 °F
Humidity 100%
Rainfall 0.00 in
Snow Depth Not available.
UV Not available.
Pollen 4.20 out of 12
Air Quality Not available.
Flu Activity Not available.
METAR KLNP 301115Z AUTO 22003KT 1/4SM FG VV002 13/13 A3003 RMK AO2

More Conditions Fewer Conditions

Pressure 30.03 in
Visibility 0.2 miles
Clouds
Dew Point 55 °F
Humidity 100%
Rainfall 0.00 in
Snow Depth Not available.
UV Not available.
Pollen 4.20 out of 12
Air Quality Not available.
Flu Activity Not available.
METAR KLNP 301115Z AUTO 22003KT 1/4SM FG VV002 13/13 A3003 RMK AO2

More Conditions Fewer Conditions

10-Day Weather Forecast

Almanac

Astronomy

Sep. 30, 2014 Rise Set
Actual Time 7:24 AM EDT 7:14 PM EDT
Civil Twilight 6:58 AM EDT 7:40 PM EDT
Nautical Twilight 6:28 AM EDT 8:10 PM EDT
Astronomical Twilight 5:57 AM EDT 8:41 PM EDT
Moon 1:25 PM EDT 11:49 PM EDT
Length of Visible Light 12h 42m
Length of Day
11h 50m
Tomorrow will be 2m 23s shorter.
Waxing Crescent, 36% of the Moon is Illuminated
Today
Waxing Crescent
Oct 1
First Quarter
Oct 8
Full
Oct 15
Last Quarter
Oct 23
New

Today's Extremes

State Highs State Lows

Community

WunderPhotos

Upload Photos

1,757,618 photos uploaded!

Nearby

Snow Depth

Station Depth Elevation
No new snow has been reported.

Earthquake Activity

City Distance Mag. Time & Date
No recent earthquake activity has been reported nearby.
Minimum magnitude displayed is 2.5.

Coastal Water Temperatures

Place Temperature
No Stations Reporting

Nearby Weather Stations